Raton, NM

8:34 AM MDT on July 26, 2014 (GMT -0600)
Near Historic Downtown (KNMRATON4) Elev 6709 ft | 36.90 °N, 104.44 °W | Change Station

Current weather conditions updated 10 minutes ago

Clear
Clear
70.4 °F
Feels Like 75 °F
N
0.0
Wind Variable Wind from NW

Today is forecast to be Cooler than yesterday. Partly cloudy, chance of a thunderstorm tonight.

Today
High -- | Low -- °F
--% Chance of Precip.
Yesterday
High -- | Low -- °F
Precip. -- in
5:59 AM 8:10 PM
Waning Crescent, 0% visible
Pressure 29.96 in
Visibility 10.0 miles
Clouds Clear
Heat Index 75 °F
Dew Point 58 °F
Humidity 64%
Rainfall 0.00 in
Snow Depth Not available.
UV 2 out of 12
Pollen 7.10 out of 12
Air Quality Not available.
Flu Activity Not available.
METAR KRTN 261353Z AUTO 05006KT 10SM CLR 19/12 A3023 RMK AO2 SLP143 T01890117 TSNO

More Conditions Fewer Conditions

Pressure 29.96 in
Visibility 10.0 miles
Clouds Clear
Heat Index 75 °F
Dew Point 58 °F
Humidity 64%
Rainfall 0.00 in
Snow Depth Not available.
UV 2 out of 12
Pollen 7.10 out of 12
Air Quality Not available.
Flu Activity Not available.
METAR KRTN 261353Z AUTO 05006KT 10SM CLR 19/12 A3023 RMK AO2 SLP143 T01890117 TSNO

More Conditions Fewer Conditions

10-Day Weather Forecast

Almanac

Astronomy

Jul. 26, 2014 Rise Set
Actual Time 5:59 AM MDT 8:10 PM MDT
Civil Twilight 5:30 AM MDT 8:39 PM MDT
Nautical Twilight 4:54 AM MDT 9:15 PM MDT
Astronomical Twilight 4:15 AM MDT 9:53 PM MDT
Moon 5:52 AM MDT 7:49 PM MDT
Length of Visible Light 15h 09m
Length of Day
14h 11m
Tomorrow will be 1m 36s shorter.
Waning Crescent, 0% of the Moon is Illuminated
Today
Waning Crescent
Jul 26
New
Aug 3
First Quarter
Aug 10
Full
Aug 17
Last Quarter

Today's Extremes

State Highs State Lows

Community

WunderPhotos

Upload Photos

1,737,587 photos uploaded!

Nearby

Snow Depth

Station Depth Elevation
North Costilla 0 in 10600 ft
Red River Pass #2 0 in 9850 ft
Tolby 0 in 10180 ft
Gallegos Peak 0 in 9800 ft
Hopewell 0 in 10000 ft

Earthquake Activity

City Distance Mag. Time & Date
No recent earthquake activity has been reported nearby.
Minimum magnitude displayed is 2.5.

Coastal Water Temperatures

Place Temperature
No Stations Reporting

Nearby Weather Stations

Station Location Temp. Heat Index Dew Point Humidity Wind Precip. Elev Updated Type
Near Historic Downtown, Raton, NM 70.4 °F 75 °F 58 °F 64% NW  at  0.0 mph - / hr 6709 ft 8:24 AM MDT Normal
RAWS BOSQUE CO, Weston, CO 72 °F 77 °F 45 °F 38% NW  at  1 mph 0.00 in / hr 8173 ft 7:26 AM MDT MADIS
Elm St, Cokedale, CO 73.9 °F 77 °F 54 °F 49% SW  at  3.1 mph 0.00 in / hr 6332 ft 8:30 AM MDT Normal
Near Trinidad State Junior College, Trinidad, CO 70.6 °F 77 °F 53 °F 54% SW  at  5.0 mph 0.00 in / hr 6070 ft 8:34 AM MDT Rapid Fire
HADS PURGATOIRE RIVER AT TRINIDAD CO, Trinidad, CO 63 °F - - - North  at  - 0.00 in / hr 5979 ft 7:15 AM MDT MADIS

Show More Stations Show Fewer Stations